Time;durP1;ratioP1;P1;durP2;ratioP2;P2;SDS_P1;SDS_P2;PMS_P1;PMS_P2;Temp;Humidity;BMP_temperature;BMP_pressure;BME280_temperature;BME280_humidity;BME280_pressure;Samples;Min_cycle;Max_cycle;Signal;HPM_P1;HPM_P2
2022/09/19 00:01:52;;;;;;;0.90;0.90;;;10.60;1.00;;;;;;5020774;28;20506;-82
2022/09/19 00:04:22;;;;;;;0.77;0.77;;;10.80;99.90;;;;;;5022084;28;20995;-82
2022/09/19 00:06:53;;;;;;;0.70;0.70;;;10.80;99.90;;;;;;5020375;28;20460;-83
2022/09/19 00:09:26;;;;;;;0.80;0.80;;;10.70;99.90;;;;;;5020204;28;20483;-82
2022/09/19 00:11:55;;;;;;;0.70;0.70;;;10.60;1.00;;;;;;5020691;28;20539;-82
2022/09/19 00:14:26;;;;;;;0.70;0.70;;;10.60;1.00;;;;;;5018121;28;20503;-81
2022/09/19 00:16:57;;;;;;;0.90;0.70;;;10.60;1.00;;;;;;5018554;28;21374;-82
2022/09/19 00:19:27;;;;;;;0.70;0.70;;;10.60;91.20;;;;;;5023554;28;20539;-83
2022/09/19 00:21:57;;;;;;;0.80;0.80;;;10.60;99.90;;;;;;5028557;28;20492;-82
2022/09/19 00:27:15;;;;;;;0.70;0.70;;;10.60;99.90;;;;;;5030041;28;20505;-83
2022/09/19 00:29:43;;;;;;;0.70;0.70;;;10.70;99.90;;;;;;5030512;28;20541;-82
2022/09/19 00:32:12;;;;;;;0.60;0.60;;;10.70;1.00;;;;;;5025273;28;20987;-83
2022/09/19 00:34:42;;;;;;;0.70;0.70;;;10.70;1.00;;;;;;5023394;28;20511;-83
2022/09/19 00:37:11;;;;;;;0.70;0.70;;;10.60;99.90;;;;;;5028360;28;20464;-82
2022/09/19 00:39:41;;;;;;;1.13;0.70;;;10.50;99.90;;;;;;5025811;28;20508;-83
2022/09/19 00:42:15;;;;;;;0.73;0.73;;;10.50;1.00;;;;;;5024367;28;20472;-83
2022/09/19 00:44:55;;;;;;;0.70;0.70;;;10.40;1.00;;;;;;5018443;28;20515;-83
2022/09/19 00:47:29;;;;;;;3.43;0.80;;;10.40;99.90;;;;;;5024868;28;20464;-83
2022/09/19 00:50:00;;;;;;;0.87;0.80;;;10.40;99.90;;;;;;5031769;28;21229;-82
2022/09/19 00:52:41;;;;;;;0.70;0.70;;;10.40;1.00;;;;;;5029084;28;20460;-82
2022/09/19 00:55:11;;;;;;;1.80;0.70;;;10.30;1.00;;;;;;5027810;28;20491;-82
2022/09/19 00:58:01;;;;;;;1.03;1.03;;;10.40;1.00;;;;;;5029361;28;20544;-82
2022/09/19 01:00:29;;;;;;;0.80;0.80;;;10.30;99.90;;;;;;5031107;28;20464;-82
2022/09/19 01:02:57;;;;;;;0.70;0.70;;;10.30;1.00;;;;;;5027533;28;20527;-83
2022/09/19 01:05:35;;;;;;;0.90;0.80;;;10.30;99.90;;;;;;5025396;28;20494;-83
2022/09/19 01:08:24;;;;;;;0.73;0.70;;;10.20;11.80;;;;;;5030691;28;20457;-83
2022/09/19 01:11:10;;;;;;;0.80;0.80;;;10.30;13.90;;;;;;5023883;28;20540;-83
2022/09/19 01:13:47;;;;;;;0.90;0.90;;;10.10;1.00;;;;;;5031095;28;20472;-82
2022/09/19 01:16:20;;;;;;;1.03;1.00;;;10.10;99.90;;;;;;5028806;28;21288;-84
2022/09/19 01:19:01;;;;;;;0.93;0.93;;;10.00;1.00;;;;;;5025929;28;20800;-82
2022/09/19 01:21:41;;;;;;;0.90;0.90;;;10.10;99.90;;;;;;5027901;28;20452;-82
2022/09/19 01:24:42;;;;;;;0.80;0.80;;;10.10;57.80;;;;;;5023718;28;21249;-83
2022/09/19 01:27:26;;;;;;;0.80;0.80;;;10.10;99.90;;;;;;5000288;28;20456;-84
2022/09/19 01:30:01;;;;;;;0.80;0.80;;;10.00;99.90;;;;;;5025513;28;20577;-83
2022/09/19 01:32:33;;;;;;;1.00;0.80;;;9.90;1.00;;;;;;5032648;28;20855;-83
2022/09/19 01:35:06;;;;;;;0.90;0.80;;;10.10;1.00;;;;;;5035159;28;20552;-82
2022/09/19 01:37:40;;;;;;;0.80;0.80;;;10.00;99.90;;;;;;5030335;28;20471;-82
2022/09/19 01:40:12;;;;;;;0.80;0.80;;;10.00;99.90;;;;;;5026768;28;20490;-82
2022/09/19 01:42:54;;;;;;;1.13;0.80;;;10.00;99.90;;;;;;5032686;28;20456;-83
2022/09/19 01:45:27;;;;;;;0.80;0.80;;;10.10;99.90;;;;;;5027865;28;20488;-81
2022/09/19 01:48:06;;;;;;;0.90;0.70;;;10.20;99.90;;;;;;5025064;28;20458;-82
2022/09/19 01:50:58;;;;;;;0.90;0.90;;;10.30;1.00;;;;;;5030678;28;20478;-83
2022/09/19 01:53:37;;;;;;;0.80;0.80;;;10.20;99.90;;;;;;5022620;28;21099;-81
2022/09/19 01:56:11;;;;;;;1.53;0.80;;;10.00;1.00;;;;;;5028872;28;20447;-82
2022/09/19 01:58:47;;;;;;;0.90;0.90;;;9.90;99.90;;;;;;5026648;28;20495;-82
2022/09/19 02:01:23;;;;;;;0.80;0.80;;;9.80;1.00;;;;;;5031643;28;20886;-83
2022/09/19 02:03:55;;;;;;;0.80;0.80;;;9.70;99.90;;;;;;5019844;28;20559;-82
2022/09/19 02:06:32;;;;;;;0.70;0.70;;;9.60;99.90;;;;;;5029402;28;20461;-82
2022/09/19 02:09:08;;;;;;;0.90;0.90;;;9.60;1.00;;;;;;5028554;28;20460;-83
2022/09/19 02:11:36;;;;;;;0.80;0.80;;;9.60;1.00;;;;;;5028300;28;21024;-82
2022/09/19 02:14:10;;;;;;;1.00;1.00;;;9.70;1.00;;;;;;5037458;28;20505;-82
2022/09/19 02:16:46;;;;;;;1.13;0.80;;;9.80;26.00;;;;;;5029574;28;20455;-82
2022/09/19 02:19:20;;;;;;;0.90;0.90;;;9.80;1.00;;;;;;5035226;28;20455;-82
2022/09/19 02:21:53;;;;;;;0.90;0.90;;;9.80;1.00;;;;;;5025065;28;20479;-82
2022/09/19 02:24:27;;;;;;;1.00;1.00;;;9.70;1.00;;;;;;5035564;28;20514;-82
2022/09/19 02:26:59;;;;;;;0.90;0.90;;;9.60;99.90;;;;;;5041751;28;20504;-84
2022/09/19 02:29:32;;;;;;;1.00;1.00;;;9.60;1.00;;;;;;5027358;28;20566;-83
2022/09/19 02:32:02;;;;;;;0.80;0.80;;;9.50;99.90;;;;;;5040856;28;21009;-82
2022/09/19 02:34:30;;;;;;;1.20;1.10;;;9.50;1.00;;;;;;5036570;28;20511;-82
2022/09/19 02:37:04;;;;;;;1.00;1.00;;;9.50;1.00;;;;;;5023457;28;20553;-82
2022/09/19 02:39:37;;;;;;;0.80;0.80;;;9.50;58.50;;;;;;5031981;28;20494;-82
2022/09/19 02:42:11;;;;;;;1.10;0.90;;;9.50;99.90;;;;;;5047809;28;20880;-81
2022/09/19 02:44:52;;;;;;;1.13;1.03;;;9.60;71.80;;;;;;5026911;28;20564;-82
2022/09/19 02:47:26;;;;;;;0.90;0.90;;;9.60;99.90;;;;;;5032540;28;20452;-83
2022/09/19 02:49:59;;;;;;;0.97;0.97;;;9.60;99.90;;;;;;5029355;28;20518;-82
2022/09/19 02:52:31;;;;;;;0.90;0.90;;;9.60;99.90;;;;;;5024060;28;20461;-82
2022/09/19 02:55:05;;;;;;;1.60;1.07;;;9.70;1.00;;;;;;5023866;28;20549;-82
2022/09/19 02:57:36;;;;;;;1.30;0.97;;;9.50;99.90;;;;;;5021515;28;20487;-82
2022/09/19 03:00:06;;;;;;;0.80;0.80;;;9.50;99.90;;;;;;5023330;28;20471;-82
2022/09/19 03:02:40;;;;;;;1.70;1.00;;;9.50;99.90;;;;;;5023315;28;20957;-82
2022/09/19 03:05:13;;;;;;;1.00;1.00;;;9.50;1.00;;;;;;5023271;28;21687;-82
2022/09/19 03:07:46;;;;;;;2.47;1.00;;;9.50;8.20;;;;;;5025418;28;20538;-83
2022/09/19 03:10:16;;;;;;;1.10;1.10;;;9.70;99.90;;;;;;5025752;28;20492;-82
2022/09/19 03:12:49;;;;;;;0.90;0.90;;;9.60;99.90;;;;;;5024196;28;20995;-83
2022/09/19 03:15:20;;;;;;;1.57;0.90;;;9.70;99.90;;;;;;5026526;28;20448;-83
2022/09/19 03:17:53;;;;;;;1.07;1.00;;;9.70;99.90;;;;;;5025496;28;20523;-82
2022/09/19 03:20:24;;;;;;;0.90;0.90;;;9.50;99.90;;;;;;5026273;28;20533;-83
2022/09/19 03:22:54;;;;;;;1.20;1.10;;;9.50;1.00;;;;;;5025201;28;20460;-83
2022/09/19 03:25:25;;;;;;;1.20;1.20;;;9.80;1.00;;;;;;5025072;28;20447;-82
2022/09/19 03:27:53;;;;;;;1.23;1.17;;;9.40;1.00;;;;;;5024711;28;20456;-83
2022/09/19 03:30:21;;;;;;;1.90;1.10;;;9.40;99.90;;;;;;5031985;28;20526;-83
2022/09/19 03:32:51;;;;;;;1.57;1.10;;;9.20;99.90;;;;;;5031454;28;20533;-82
2022/09/19 03:35:21;;;;;;;1.70;1.10;;;9.20;1.00;;;;;;5027927;28;20903;-83
2022/09/19 03:37:50;;;;;;;1.20;1.10;;;9.40;1.00;;;;;;5028731;28;20756;-82
2022/09/19 03:40:18;;;;;;;1.93;1.10;;;9.40;99.90;;;;;;5026503;28;20477;-83
2022/09/19 03:42:51;;;;;;;1.57;1.07;;;9.40;1.00;;;;;;5023796;28;20500;-83
2022/09/19 03:45:20;;;;;;;2.23;1.10;;;9.30;88.10;;;;;;5029275;28;20453;-81
2022/09/19 03:47:48;;;;;;;2.07;1.30;;;9.30;99.90;;;;;;5026381;28;20458;-83
2022/09/19 03:50:17;;;;;;;1.50;1.10;;;9.40;99.90;;;;;;5033608;28;20572;-82
2022/09/19 03:52:47;;;;;;;2.30;1.00;;;9.40;1.00;;;;;;5028190;28;20459;-81
2022/09/19 03:55:15;;;;;;;1.07;1.00;;;9.40;99.90;;;;;;5029555;28;20471;-83
2022/09/19 03:57:43;;;;;;;1.27;1.17;;;9.30;13.70;;;;;;5023326;28;20445;-82
2022/09/19 04:00:12;;;;;;;1.33;1.00;;;9.30;99.90;;;;;;5026243;28;20562;-81
2022/09/19 04:02:40;;;;;;;1.10;1.00;;;9.40;1.00;;;;;;5040058;28;20472;-83
2022/09/19 04:05:10;;;;;;;1.70;1.20;;;9.30;99.90;;;;;;5022842;28;20698;-82
2022/09/19 04:07:39;;;;;;;1.30;1.00;;;9.30;1.00;;;;;;5025599;28;20825;-82
2022/09/19 04:10:08;;;;;;;1.83;1.00;;;9.40;99.90;;;;;;5022028;28;20460;-83
2022/09/19 04:12:36;;;;;;;3.03;1.00;;;9.50;99.90;;;;;;5035845;28;20470;-83
2022/09/19 04:15:05;;;;;;;1.73;1.20;;;9.50;99.90;;;;;;5020498;28;20472;-82
2022/09/19 04:17:34;;;;;;;1.30;1.03;;;9.50;99.90;;;;;;5022703;28;20531;-83
2022/09/19 04:20:02;;;;;;;1.20;1.10;;;9.60;99.90;;;;;;5019674;28;20536;-82
2022/09/19 04:22:30;;;;;;;1.27;1.10;;;9.70;1.00;;;;;;5024031;28;20509;-83
2022/09/19 04:24:59;;;;;;;2.00;1.30;;;9.70;1.00;;;;;;5027498;28;20488;-81
2022/09/19 04:27:27;;;;;;;1.77;1.10;;;9.70;90.90;;;;;;5025272;28;20565;-80
2022/09/19 04:29:56;;;;;;;3.30;1.23;;;9.80;1.00;;;;;;5041130;28;20458;-83
2022/09/19 04:32:24;;;;;;;1.43;1.10;;;9.90;32.70;;;;;;5022161;28;20480;-79
2022/09/19 04:34:55;;;;;;;1.93;1.17;;;9.70;99.90;;;;;;5024405;28;20508;-78
2022/09/19 04:37:23;;;;;;;1.97;1.10;;;10.00;99.90;;;;;;5026964;28;20447;-79
2022/09/19 04:39:51;;;;;;;2.23;1.30;;;10.00;1.00;;;;;;5025313;28;20533;-79
2022/09/19 04:42:21;;;;;;;1.10;1.10;;;10.20;1.00;;;;;;5025419;28;20539;-79
2022/09/19 04:44:49;;;;;;;1.20;1.10;;;10.20;99.90;;;;;;5024259;28;20474;-80
2022/09/19 04:47:17;;;;;;;1.40;1.30;;;10.30;99.90;;;;;;5023111;28;20483;-79
2022/09/19 04:49:45;;;;;;;1.30;1.20;;;10.20;99.90;;;;;;5020884;28;20545;-81
2022/09/19 04:52:13;;;;;;;2.90;1.40;;;10.20;99.90;;;;;;5021068;28;20482;-81
2022/09/19 04:54:42;;;;;;;2.23;1.70;;;9.90;1.00;;;;;;5020816;28;20548;-79
2022/09/19 04:57:11;;;;;;;1.33;1.20;;;9.70;99.90;;;;;;5021442;28;20444;-80
2022/09/19 04:59:40;;;;;;;4.03;1.47;;;9.70;99.90;;;;;;5021709;28;20460;-80
2022/09/19 05:02:08;;;;;;;3.47;1.30;;;9.60;6.70;;;;;;5015672;28;20488;-81
2022/09/19 05:04:38;;;;;;;1.80;1.50;;;9.80;1.00;;;;;;5022662;28;20542;-81
2022/09/19 05:07:08;;;;;;;3.00;1.40;;;9.80;99.90;;;;;;5024396;28;21084;-81
2022/09/19 05:09:36;;;;;;;1.70;1.60;;;9.80;1.00;;;;;;5023345;28;20513;-80
2022/09/19 05:12:06;;;;;;;4.50;1.60;;;9.90;99.90;;;;;;5020814;28;20492;-81
2022/09/19 05:14:34;;;;;;;1.30;1.20;;;9.70;99.90;;;;;;5036074;28;20566;-82
2022/09/19 05:17:04;;;;;;;2.83;1.63;;;9.80;99.90;;;;;;5027785;28;20991;-81
2022/09/19 05:19:32;;;;;;;3.17;1.47;;;9.90;99.90;;;;;;5023523;28;20463;-80
2022/09/19 05:22:01;;;;;;;1.33;1.20;;;9.90;99.90;;;;;;5021583;28;20458;-81
2022/09/19 05:24:29;;;;;;;2.77;1.33;;;9.90;1.00;;;;;;5016806;28;20558;-81
2022/09/19 05:26:58;;;;;;;1.40;1.30;;;10.00;1.00;;;;;;5022027;28;20455;-81
2022/09/19 05:29:26;;;;;;;1.30;1.30;;;10.00;1.00;;;;;;5021958;28;20470;-81
2022/09/19 05:32:02;;;;;;;3.40;1.63;;;10.00;99.90;;;;;;5021227;28;20547;-81
2022/09/19 05:34:31;;;;;;;1.80;1.57;;;10.00;1.00;;;;;;5022238;28;20486;-79
2022/09/19 05:36:59;;;;;;;3.93;1.40;;;10.10;99.90;;;;;;5021749;28;20520;-81
2022/09/19 05:39:27;;;;;;;2.70;1.60;;;10.10;1.00;;;;;;5026104;28;20518;-82
2022/09/19 05:41:55;;;;;;;4.47;2.10;;;10.00;1.00;;;;;;5021480;28;20465;-82
2022/09/19 05:44:23;;;;;;;4.27;1.93;;;10.10;99.90;;;;;;5019645;28;20557;-82
2022/09/19 05:46:52;;;;;;;2.10;1.43;;;10.10;99.90;;;;;;5026241;28;20444;-82
2022/09/19 05:49:21;;;;;;;2.67;1.50;;;10.20;1.00;;;;;;5024313;28;20454;-82
2022/09/19 05:51:54;;;;;;;1.93;1.70;;;10.30;1.00;;;;;;5027195;28;21109;-81
2022/09/19 05:54:22;;;;;;;6.43;1.47;;;10.20;99.90;;;;;;5030938;28;21045;-82
2022/09/19 05:56:52;;;;;;;3.00;1.90;;;10.20;99.90;;;;;;5046871;28;20496;-82
2022/09/19 05:59:20;;;;;;;2.07;1.70;;;10.10;1.00;;;;;;5032298;28;20450;-82
2022/09/19 06:01:49;;;;;;;1.80;1.70;;;10.10;99.90;;;;;;5031800;28;20477;-81
2022/09/19 06:04:18;;;;;;;4.03;2.17;;;10.30;1.00;;;;;;5031770;28;20479;-81
2022/09/19 06:06:46;;;;;;;2.87;1.60;;;10.40;99.90;;;;;;5030463;28;20468;-82
2022/09/19 06:09:15;;;;;;;1.60;1.50;;;10.40;99.90;;;;;;5032074;28;20491;-80
2022/09/19 06:11:43;;;;;;;2.90;1.50;;;10.30;1.00;;;;;;5032470;28;20553;-82
2022/09/19 06:14:15;;;;;;;2.13;1.40;;;10.30;1.00;;;;;;5033375;28;20508;-81
2022/09/19 06:16:43;;;;;;;4.40;1.63;;;10.40;33.50;;;;;;5033108;28;20589;-82
2022/09/19 06:19:11;;;;;;;1.90;1.50;;;10.30;1.00;;;;;;5019743;28;20454;-82
2022/09/19 06:21:39;;;;;;;2.47;1.50;;;10.40;1.00;;;;;;5031479;28;20475;-83
2022/09/19 06:24:08;;;;;;;1.73;1.53;;;10.60;99.90;;;;;;5030832;28;20494;-82
2022/09/19 06:26:38;;;;;;;3.93;1.67;;;10.60;40.50;;;;;;5028488;28;20463;-81
2022/09/19 06:29:06;;;;;;;3.70;1.60;;;10.70;1.00;;;;;;5026425;28;20505;-82
2022/09/19 06:31:36;;;;;;;3.10;1.80;;;10.60;99.90;;;;;;5030978;28;20482;-82
2022/09/19 06:34:05;;;;;;;2.73;1.60;;;10.40;1.00;;;;;;5031953;28;20489;-81
2022/09/19 06:36:34;;;;;;;8.80;1.80;;;10.50;1.00;;;;;;5031891;28;20471;-81
2022/09/19 06:39:02;;;;;;;3.23;1.60;;;10.40;1.00;;;;;;5032781;28;20471;-82
2022/09/19 06:41:31;;;;;;;2.00;1.80;;;10.40;1.00;;;;;;5030469;28;20466;-82
2022/09/19 06:44:02;;;;;;;4.50;1.87;;;10.40;1.00;;;;;;5030871;28;21014;-81
2022/09/19 06:46:32;;;;;;;4.20;1.77;;;10.50;99.90;;;;;;5031891;28;20947;-82
2022/09/19 06:49:01;;;;;;;2.67;1.50;;;10.50;99.90;;;;;;5031166;28;20468;-82
2022/09/19 06:51:30;;;;;;;7.93;1.77;;;10.60;1.00;;;;;;5031782;28;20956;-82
2022/09/19 06:53:58;;;;;;;2.37;1.70;;;10.60;99.90;;;;;;5027461;28;20564;-82
2022/09/19 06:56:26;;;;;;;6.63;1.90;;;10.60;14.70;;;;;;5026968;28;20452;-81
2022/09/19 06:58:55;;;;;;;3.87;2.10;;;10.50;99.90;;;;;;5030123;28;20451;-80
2022/09/19 07:01:24;;;;;;;4.93;1.80;;;10.50;99.90;;;;;;5027853;28;20463;-81
2022/09/19 07:03:53;;;;;;;5.57;1.80;;;10.60;99.90;;;;;;5023342;28;20515;-81
2022/09/19 07:06:21;;;;;;;1.70;1.40;;;10.80;99.90;;;;;;5029198;28;20506;-82
2022/09/19 07:08:49;;;;;;;2.97;2.60;;;10.90;1.00;;;;;;5025965;28;20491;-82
2022/09/19 07:11:17;;;;;;;5.90;1.83;;;10.90;1.00;;;;;;5031142;28;21018;-81
2022/09/19 07:13:49;;;;;;;4.47;1.93;;;10.80;1.00;;;;;;5030845;28;20978;-81
2022/09/19 07:16:18;;;;;;;2.50;1.77;;;10.90;99.90;;;;;;5031082;28;20470;-80
2022/09/19 07:18:47;;;;;;;9.17;1.90;;;11.10;1.00;;;;;;5029712;28;20456;-81
2022/09/19 07:21:16;;;;;;;4.10;1.60;;;11.10;99.90;;;;;;5030233;28;20453;-81
2022/09/19 07:23:44;;;;;;;6.17;1.90;;;11.00;99.90;;;;;;5027729;28;20476;-82
2022/09/19 07:26:13;;;;;;;2.60;1.70;;;11.10;99.90;;;;;;5030666;28;20444;-81
2022/09/19 07:28:41;;;;;;;8.90;2.73;;;11.00;1.00;;;;;;5029495;28;20768;-80
2022/09/19 07:31:09;;;;;;;1.73;1.63;;;11.00;99.90;;;;;;5030867;28;20452;-81
2022/09/19 07:33:37;;;;;;;3.10;1.90;;;11.10;1.00;;;;;;5027607;28;20484;-80
2022/09/19 07:36:07;;;;;;;3.33;1.80;;;11.00;99.90;;;;;;5030445;28;20462;-81
2022/09/19 07:38:37;;;;;;;8.13;2.10;;;11.00;1.00;;;;;;5029708;28;20479;-81
2022/09/19 07:41:05;;;;;;;2.23;1.70;;;11.10;1.00;;;;;;5025564;28;20491;-82
2022/09/19 07:43:34;;;;;;;6.63;2.10;;;11.10;1.00;;;;;;5026512;28;20570;-81
2022/09/19 07:46:02;;;;;;;5.63;2.53;;;11.10;1.00;;;;;;5028591;28;20498;-81
2022/09/19 07:48:30;;;;;;;3.00;1.77;;;11.20;5.30;;;;;;5029589;28;20463;-81
2022/09/19 07:51:01;;;;;;;3.10;2.20;;;11.20;99.90;;;;;;5027753;28;20470;-81
2022/09/19 07:53:31;;;;;;;3.87;2.00;;;11.30;99.90;;;;;;5027173;28;20469;-81
2022/09/19 07:56:00;;;;;;;2.40;1.63;;;11.50;99.90;;;;;;5022110;28;20463;-80
2022/09/19 07:58:30;;;;;;;4.73;1.87;;;11.60;99.90;;;;;;5028302;28;20579;-81
2022/09/19 08:01:00;;;;;;;2.00;1.73;;;11.70;1.00;;;;;;5029600;28;20456;-81
2022/09/19 08:03:29;;;;;;;5.77;2.20;;;11.70;1.00;;;;;;5027651;28;20494;-81
2022/09/19 08:05:59;;;;;;;2.33;1.80;;;11.50;99.90;;;;;;5028075;28;20972;-80
2022/09/19 08:08:28;;;;;;;2.50;1.67;;;11.40;99.90;;;;;;5029904;28;20510;-82
2022/09/19 08:11:01;;;;;;;3.80;2.10;;;11.40;99.90;;;;;;5030173;28;20551;-81
2022/09/19 08:13:30;;;;;;;2.63;1.67;;;11.50;1.00;;;;;;5029836;28;20480;-82
2022/09/19 08:15:59;;;;;;;3.47;2.00;;;11.50;99.90;;;;;;5028809;28;20492;-81
2022/09/19 08:18:31;;;;;;;3.37;2.17;;;11.50;1.00;;;;;;5029154;28;20474;-81
2022/09/19 08:20:59;;;;;;;4.17;1.93;;;11.30;1.00;;;;;;5044748;28;20535;-81
2022/09/19 08:23:29;;;;;;;7.23;3.00;;;11.40;99.90;;;;;;5027323;28;20464;-81
2022/09/19 08:25:57;;;;;;;4.80;1.90;;;11.50;1.00;;;;;;5027984;28;20465;-82
2022/09/19 08:28:29;;;;;;;6.43;1.90;;;11.50;1.00;;;;;;5027512;28;20503;-82
2022/09/19 08:30:59;;;;;;;3.57;1.80;;;11.50;1.00;;;;;;5025292;28;20450;-81
2022/09/19 08:33:27;;;;;;;9.17;2.20;;;11.60;1.00;;;;;;5025530;28;20533;-81
2022/09/19 08:35:57;;;;;;;3.87;2.00;;;11.60;1.00;;;;;;5028603;28;20456;-81
2022/09/19 08:38:26;;;;;;;2.13;1.93;;;11.60;1.00;;;;;;5027636;28;20465;-82
2022/09/19 08:41:25;;;;;;;4.70;1.90;;;11.60;1.00;;;;;;5020244;28;20463;-81
2022/09/19 08:44:00;;;;;;;4.13;2.20;;;11.60;1.00;;;;;;5025060;28;20484;-82
2022/09/19 08:46:35;;;;;;;8.03;2.30;;;11.70;1.00;;;;;;5028017;28;20526;-82
2022/09/19 08:49:10;;;;;;;6.37;2.20;;;11.90;99.90;;;;;;5026560;28;20444;-82
2022/09/19 08:51:51;;;;;;;3.93;2.40;;;12.00;1.00;;;;;;5026966;28;20448;-81
2022/09/19 08:54:24;;;;;;;2.57;2.07;;;11.90;1.00;;;;;;5025398;28;20484;-81
2022/09/19 08:56:53;;;;;;;3.57;2.80;;;11.90;1.00;;;;;;5025208;28;20888;-81
2022/09/19 08:59:26;;;;;;;4.13;2.10;;;11.70;99.90;;;;;;5024732;28;20444;-82
2022/09/19 09:02:00;;;;;;;4.17;2.57;;;11.80;99.90;;;;;;5027715;28;20453;-82
2022/09/19 09:04:48;;;;;;;4.77;2.23;;;11.90;1.00;;;;;;5025388;28;20801;-82
2022/09/19 09:07:34;;;;;;;3.80;1.93;;;11.80;1.00;;;;;;5023990;28;20466;-81
2022/09/19 09:10:22;;;;;;;8.53;2.40;;;11.90;1.00;;;;;;5027378;28;20506;-81
2022/09/19 09:13:03;;;;;;;5.70;2.20;;;12.10;1.00;;;;;;5023775;28;20459;-81
2022/09/19 09:15:53;;;;;;;4.20;2.10;;;12.10;99.90;;;;;;5026033;28;20468;-82
2022/09/19 09:18:42;;;;;;;2.60;2.13;;;12.10;99.90;;;;;;5027985;28;20460;-82
2022/09/19 09:21:20;;;;;;;4.20;2.17;;;12.10;1.00;;;;;;5026818;28;20925;-81
2022/09/19 09:23:57;;;;;;;2.87;2.40;;;12.10;1.00;;;;;;5027013;28;21090;-82
2022/09/19 09:26:47;;;;;;;3.20;2.57;;;12.10;1.00;;;;;;5027858;28;20456;-82
2022/09/19 09:29:23;;;;;;;3.23;2.40;;;12.10;99.90;;;;;;5026831;28;20855;-81
2022/09/19 09:31:59;;;;;;;3.60;3.13;;;12.20;99.90;;;;;;5026564;28;20464;-81
2022/09/19 09:34:31;;;;;;;3.40;1.97;;;12.30;99.90;;;;;;5028582;28;20491;-82
2022/09/19 09:37:06;;;;;;;4.67;2.60;;;12.20;99.90;;;;;;5028027;28;20449;-80
2022/09/19 09:39:57;;;;;;;4.53;2.33;;;12.10;1.00;;;;;;5032742;28;20467;-82
2022/09/19 09:42:32;;;;;;;10.50;2.47;;;12.10;99.90;;;;;;5026427;28;20472;-81
2022/09/19 09:45:10;;;;;;;2.23;2.03;;;12.00;99.90;;;;;;5028180;28;20471;-81
2022/09/19 09:47:46;;;;;;;3.37;1.93;;;12.10;1.00;;;;;;5024699;28;20456;-81
2022/09/19 09:50:33;;;;;;;3.60;2.10;;;12.10;99.90;;;;;;5026469;28;20794;-82
2022/09/19 09:53:10;;;;;;;1.97;1.70;;;12.20;99.90;;;;;;5021753;28;20448;-82
2022/09/19 09:58:43;;;;;;;1.90;1.80;;;12.20;99.90;;;;;;5025356;28;20446;-82
2022/09/19 10:04:21;;;;;;;4.80;1.93;;;12.40;99.90;;;;;;4983204;28;20467;-82
2022/09/19 10:06:57;;;;;;;7.00;2.33;;;12.50;99.90;;;;;;5024061;28;20976;-82
2022/09/19 10:09:30;;;;;;;3.23;1.77;;;12.50;99.90;;;;;;5027699;28;20480;-81
2022/09/19 10:12:03;;;;;;;5.93;2.43;;;12.40;99.90;;;;;;5027220;28;20449;-82
2022/09/19 10:14:58;;;;;;;4.67;2.20;;;12.50;99.90;;;;;;5023698;28;20476;-82
2022/09/19 10:17:39;;;;;;;2.77;2.20;;;12.60;1.00;;;;;;5025193;28;21033;-82
2022/09/19 10:20:17;;;;;;;2.07;1.60;;;12.70;99.90;;;;;;5026396;28;20471;-82
2022/09/19 10:22:46;;;;;;;3.27;1.90;;;13.00;89.10;;;;;;5025161;28;20443;-82
2022/09/19 10:25:21;;;;;;;2.80;1.73;;;13.10;1.00;;;;;;5023810;28;20481;-82
2022/09/19 10:27:51;;;;;;;4.13;1.97;;;13.10;1.00;;;;;;5026447;28;20455;-82
2022/09/19 10:30:25;;;;;;;5.60;3.20;;;13.10;1.00;;;;;;5026373;28;20963;-80
2022/09/19 10:32:54;;;;;;;4.97;1.90;;;13.00;1.00;;;;;;5026806;28;20968;-82
2022/09/19 10:35:27;;;;;;;2.43;2.23;;;13.00;1.00;;;;;;5019460;28;20527;-82
2022/09/19 10:38:00;;;;;;;6.67;2.27;;;13.00;1.00;;;;;;5025864;28;20556;-82
2022/09/19 10:40:31;;;;;;;3.40;2.60;;;13.10;1.00;;;;;;5029857;28;20468;-82
2022/09/19 10:43:01;;;;;;;2.03;1.87;;;13.10;56.60;;;;;;5022729;28;20448;-82
2022/09/19 10:45:33;;;;;;;1.90;1.80;;;13.10;99.90;;;;;;5027778;28;20811;-82
2022/09/19 10:48:10;;;;;;;3.17;1.97;;;13.00;99.90;;;;;;5030769;28;20514;-82
2022/09/19 10:50:44;;;;;;;2.50;2.20;;;13.40;99.90;;;;;;5027972;28;20964;-82
2022/09/19 10:53:22;;;;;;;2.03;1.93;;;13.60;99.90;;;;;;5027181;28;21032;-82
2022/09/19 10:55:52;;;;;;;3.63;2.03;;;13.70;1.00;;;;;;5023023;28;20466;-82
2022/09/19 10:58:26;;;;;;;4.10;2.60;;;13.70;1.00;;;;;;5029861;28;20469;-83
2022/09/19 11:00:57;;;;;;;5.40;2.20;;;13.70;1.00;;;;;;5028517;28;20966;-82
2022/09/19 11:03:28;;;;;;;2.33;2.10;;;13.70;1.00;;;;;;5029718;28;20496;-82
2022/09/19 11:06:07;;;;;;;2.00;1.90;;;13.80;1.00;;;;;;5028188;28;20454;-82
2022/09/19 11:08:44;;;;;;;1.90;1.73;;;13.80;1.00;;;;;;5028737;28;20485;-83
2022/09/19 11:11:37;;;;;;;8.80;2.20;;;13.70;1.00;;;;;;5016711;28;20540;-82
2022/09/19 11:14:18;;;;;;;1.90;1.80;;;13.90;1.00;;;;;;5010964;28;20493;-82
2022/09/19 11:17:04;;;;;;;1.83;1.73;;;14.10;1.00;;;;;;5030533;28;20454;-83
2022/09/19 11:19:49;;;;;;;2.53;1.70;;;14.10;1.00;;;;;;5030879;28;21029;-82
2022/09/19 11:22:32;;;;;;;1.60;1.50;;;14.20;1.00;;;;;;5041589;28;20455;-82
2022/09/19 11:25:10;;;;;;;1.70;1.60;;;14.10;99.90;;;;;;5030742;28;20469;-84
2022/09/19 11:27:54;;;;;;;1.97;1.87;;;14.00;99.90;;;;;;5030775;28;20864;-82
2022/09/19 11:30:25;;;;;;;1.70;1.60;;;14.00;99.90;;;;;;5028541;28;20453;-82
2022/09/19 11:33:16;;;;;;;2.00;1.90;;;13.90;99.90;;;;;;5044575;28;20453;-83
2022/09/19 11:36:10;;;;;;;1.90;1.80;;;14.00;99.90;;;;;;5022175;28;20573;-83
2022/09/19 11:38:55;;;;;;;2.00;1.90;;;14.00;99.90;;;;;;5028377;28;20465;-82
2022/09/19 11:42:00;;;;;;;1.80;1.70;;;13.90;99.90;;;;;;5023102;28;20484;-82
2022/09/19 11:44:53;;;;;;;2.60;1.60;;;14.10;99.90;;;;;;5025770;28;20548;-82
2022/09/19 11:47:37;;;;;;;2.40;1.60;;;14.10;99.90;;;;;;5023320;28;20480;-83
2022/09/19 11:50:32;;;;;;;1.60;1.50;;;14.10;99.90;;;;;;5028215;28;20462;-82
2022/09/19 11:53:31;;;;;;;1.80;1.70;;;14.00;99.90;;;;;;5025917;28;20553;-83
2022/09/19 11:56:15;;;;;;;4.10;1.47;;;13.90;99.90;;;;;;5033356;28;20906;-82
2022/09/19 11:58:52;;;;;;;1.73;1.33;;;13.90;99.90;;;;;;5028389;28;20462;-81
2022/09/19 12:01:35;;;;;;;2.03;1.60;;;13.90;99.90;;;;;;5024387;28;20465;-83
2022/09/19 12:04:19;;;;;;;1.57;1.47;;;13.80;99.90;;;;;;5023807;28;20468;-82
2022/09/19 12:07:02;;;;;;;1.73;1.40;;;14.00;99.90;;;;;;5023156;28;20534;-81
2022/09/19 12:09:34;;;;;;;4.67;1.90;;;14.00;99.90;;;;;;5027658;28;20973;-83
2022/09/19 12:12:11;;;;;;;1.63;1.50;;;14.10;99.90;;;;;;5026604;28;20476;-82
2022/09/19 12:14:44;;;;;;;3.73;2.03;;;14.20;99.90;;;;;;5026268;28;20476;-82
2022/09/19 12:17:16;;;;;;;2.77;1.67;;;14.50;99.90;;;;;;5026316;28;20457;-82
2022/09/19 12:19:52;;;;;;;2.80;1.83;;;14.80;99.90;;;;;;5022966;28;20460;-82
2022/09/19 12:22:24;;;;;;;1.90;1.80;;;15.00;99.90;;;;;;5032736;28;20537;-83
2022/09/19 12:24:58;;;;;;;1.70;1.60;;;15.10;99.90;;;;;;5021300;28;20474;-82
2022/09/19 12:27:36;;;;;;;2.90;1.87;;;15.20;99.90;;;;;;5027823;28;20455;-82
2022/09/19 12:30:08;;;;;;;1.60;1.50;;;15.20;99.90;;;;;;5029014;28;20816;-83
2022/09/19 12:32:46;;;;;;;2.30;1.80;;;15.20;99.90;;;;;;5024015;28;20456;-83
2022/09/19 12:35:20;;;;;;;5.43;1.40;;;15.20;99.90;;;;;;5024052;28;20489;-82
2022/09/19 12:38:01;;;;;;;1.77;1.40;;;15.00;99.90;;;;;;5027614;28;20451;-82
2022/09/19 12:40:41;;;;;;;1.67;1.57;;;14.80;99.90;;;;;;5026267;28;20493;-82
2022/09/19 12:43:23;;;;;;;3.03;1.90;;;14.80;99.90;;;;;;5028738;28;20970;-82
2022/09/19 12:46:00;;;;;;;1.93;1.30;;;14.70;99.90;;;;;;5025601;28;20459;-82
2022/09/19 12:48:39;;;;;;;2.93;1.40;;;14.70;99.90;;;;;;5021190;28;20466;-82
2022/09/19 12:51:11;;;;;;;2.63;1.60;;;14.70;99.90;;;;;;5026453;28;20954;-82
2022/09/19 12:53:43;;;;;;;2.20;1.70;;;14.60;99.90;;;;;;5027979;28;20486;-82
2022/09/19 12:56:19;;;;;;;3.10;1.60;;;14.60;99.90;;;;;;5027018;28;20894;-82
2022/09/19 12:58:58;;;;;;;1.60;1.50;;;14.60;99.90;;;;;;5027773;28;20471;-83
2022/09/19 13:01:32;;;;;;;5.17;1.50;;;14.60;99.90;;;;;;5023096;28;20451;-82
2022/09/19 13:04:28;;;;;;;2.57;2.37;;;14.50;99.90;;;;;;5020738;28;21083;-82
2022/09/19 13:07:04;;;;;;;1.87;1.47;;;14.50;99.90;;;;;;5023308;28;21041;-83
2022/09/19 13:09:37;;;;;;;1.70;1.60;;;14.40;99.90;;;;;;5020909;28;20458;-87
2022/09/19 13:12:14;;;;;;;1.70;1.60;;;14.50;99.90;;;;;;5025450;28;20459;-82
2022/09/19 13:14:48;;;;;;;2.60;1.50;;;14.60;99.90;;;;;;5025562;28;20488;-82
2022/09/19 13:25:38;;;;;;;1.90;1.40;;;14.60;99.90;;;;;;5027218;28;20458;-82
2022/09/19 13:28:34;;;;;;;2.80;1.40;;;14.50;99.90;;;;;;5029716;28;20453;-82
2022/09/19 13:31:15;;;;;;;2.40;1.23;;;14.80;99.90;;;;;;5029642;28;20466;-83
2022/09/19 13:33:50;;;;;;;1.20;1.20;;;14.90;99.90;;;;;;5024445;28;20918;-82
2022/09/19 13:36:39;;;;;;;1.40;1.30;;;14.90;99.90;;;;;;5026172;28;20584;-81
2022/09/19 13:39:47;;;;;;;1.63;1.40;;;15.00;99.90;;;;;;5023788;28;20483;-81
2022/09/19 13:42:24;;;;;;;1.40;1.30;;;15.00;99.90;;;;;;5026086;28;20464;-82
2022/09/19 13:45:01;;;;;;;1.67;1.40;;;15.10;99.90;;;;;;5029580;28;20832;-82